createdAt,value
2023-04-18T00:01:59.704Z,101129.59
2023-04-18T00:04:27.069Z,101123.94
2023-04-18T00:06:54.270Z,101130.50
2023-04-18T00:09:21.300Z,101129.19
2023-04-18T00:11:48.496Z,101121.03
2023-04-18T00:14:15.701Z,101119.41
2023-04-18T00:20:26.832Z,101133.56
2023-04-18T00:22:55.042Z,101126.72
2023-04-18T00:25:22.206Z,101124.25
2023-04-18T00:27:49.212Z,101124.94
2023-04-18T00:30:16.376Z,101125.09
2023-04-18T00:32:43.451Z,101134.44
2023-04-18T00:35:10.521Z,101123.00
2023-04-18T00:37:37.560Z,101130.66
2023-04-18T00:40:05.731Z,101131.16
2023-04-18T00:42:34.068Z,101133.00
2023-04-18T00:45:01.620Z,101130.59
2023-04-18T00:47:28.756Z,101128.63
2023-04-18T00:49:56.756Z,101126.72
2023-04-18T00:52:27.282Z,101135.84
2023-04-18T00:54:55.581Z,101133.91
2023-04-18T00:57:22.764Z,101129.44
2023-04-18T00:59:50.392Z,101122.78
2023-04-18T01:02:17.653Z,101132.75
2023-04-18T01:04:44.989Z,101118.91
2023-04-18T01:07:12.286Z,101123.09
2023-04-18T01:09:40.257Z,101126.25
2023-04-18T01:12:07.270Z,101129.03
2023-04-18T01:14:34.287Z,101121.63
2023-04-18T01:17:01.656Z,101126.25
2023-04-18T01:19:28.771Z,101130.69
2023-04-18T01:22:13.490Z,101118.16
2023-04-18T01:24:41.087Z,101122.63
2023-04-18T01:27:13.602Z,101119.97
2023-04-18T01:29:41.024Z,101117.84
2023-04-18T01:32:08.254Z,101124.84
2023-04-18T01:34:35.337Z,101122.94
2023-04-18T01:37:02.346Z,101111.41
2023-04-18T01:39:29.407Z,101125.81
2023-04-18T01:41:56.408Z,101114.38
2023-04-18T01:44:23.410Z,101116.94
2023-04-18T01:46:50.598Z,101118.66
2023-04-18T01:49:17.603Z,101115.19
2023-04-18T01:51:44.628Z,101121.19
2023-04-18T01:54:12.010Z,101111.94
2023-04-18T01:56:39.202Z,101121.03
2023-04-18T01:59:06.233Z,101118.59
2023-04-18T02:01:33.209Z,101116.53
2023-04-18T02:04:00.320Z,101116.22
2023-04-18T02:06:27.373Z,101114.72
2023-04-18T02:08:54.438Z,101110.78
2023-04-18T02:11:22.200Z,101115.41
2023-04-18T02:13:49.197Z,101109.25
2023-04-18T02:16:16.407Z,101108.72
2023-04-18T02:18:44.173Z,101113.34
2023-04-18T02:21:11.952Z,101110.44
2023-04-18T02:23:39.028Z,101099.19
2023-04-18T02:26:06.637Z,101099.22
2023-04-18T02:28:33.716Z,101099.97
2023-04-18T02:31:01.109Z,101102.38
2023-04-18T02:33:28.293Z,101107.38
2023-04-18T02:35:55.288Z,101099.94
2023-04-18T02:38:22.260Z,101102.63
2023-04-18T02:40:49.275Z,101103.44
2023-04-18T02:43:16.234Z,101094.34
2023-04-18T02:45:43.275Z,101106.81
2023-04-18T02:48:10.301Z,101106.75
2023-04-18T02:50:37.343Z,101106.88
2023-04-18T02:53:04.451Z,101112.41
2023-04-18T02:55:32.156Z,101113.31
2023-04-18T02:57:59.201Z,101107.25
2023-04-18T03:00:26.960Z,101119.34
2023-04-18T03:02:54.174Z,101110.34
2023-04-18T03:05:22.270Z,101117.59
2023-04-18T03:07:49.276Z,101117.03
2023-04-18T03:10:16.536Z,101121.31
2023-04-18T03:12:43.554Z,101118.34
2023-04-18T03:15:11.453Z,101119.97
2023-04-18T03:17:39.269Z,101124.69
2023-04-18T03:20:08.064Z,101116.59
2023-04-18T03:22:35.104Z,101114.50
2023-04-18T03:25:02.138Z,101116.81
2023-04-18T03:27:29.133Z,101123.41
2023-04-18T03:29:56.136Z,101127.66
2023-04-18T03:32:23.175Z,101119.53
2023-04-18T03:34:51.776Z,101128.44
2023-04-18T03:37:18.791Z,101119.88
2023-04-18T03:39:45.802Z,101118.81
2023-04-18T03:42:12.807Z,101119.88
2023-04-18T03:44:39.855Z,101124.69
2023-04-18T03:47:06.873Z,101126.03
2023-04-18T03:49:33.864Z,101127.38
2023-04-18T03:52:00.953Z,101133.06
2023-04-18T03:54:28.003Z,101130.59
2023-04-18T03:56:55.780Z,101133.47
2023-04-18T03:59:22.828Z,101131.09
2023-04-18T04:01:49.825Z,101131.00
2023-04-18T04:04:17.382Z,101132.81
2023-04-18T04:06:44.884Z,101125.94
2023-04-18T04:09:11.878Z,101123.34
2023-04-18T04:11:39.643Z,101124.94
2023-04-18T04:14:06.659Z,101126.56
2023-04-18T04:16:33.757Z,101129.69
2023-04-18T04:19:00.908Z,101134.94
2023-04-18T04:21:27.900Z,101135.63
2023-04-18T04:23:54.888Z,101130.50
2023-04-18T04:26:23.307Z,101133.66
2023-04-18T04:28:51.678Z,101135.44
2023-04-18T04:31:18.804Z,101141.22
2023-04-18T04:33:46.694Z,101135.13
2023-04-18T04:36:16.710Z,101145.81
2023-04-18T04:38:45.684Z,101147.28
2023-04-18T04:41:12.872Z,101143.84
2023-04-18T04:43:41.352Z,101144.59
2023-04-18T04:46:08.836Z,101139.47
2023-04-18T04:48:35.843Z,101136.19
2023-04-18T04:51:02.840Z,101148.28
2023-04-18T04:53:33.187Z,101154.94
2023-04-18T04:56:00.342Z,101152.97
2023-04-18T04:58:28.549Z,101143.91
2023-04-18T05:00:55.857Z,101148.94
2023-04-18T05:03:23.418Z,101159.69
2023-04-18T05:05:50.616Z,101164.00
2023-04-18T05:08:17.650Z,101162.69
2023-04-18T05:10:46.004Z,101165.81
2023-04-18T05:13:13.010Z,101156.19
2023-04-18T05:15:40.508Z,101154.78
2023-04-18T05:18:07.548Z,101158.66
2023-04-18T05:20:34.655Z,101160.84
2023-04-18T05:23:01.647Z,101155.94
2023-04-18T05:25:29.908Z,101165.38
2023-04-18T05:27:57.135Z,101166.97
2023-04-18T05:30:24.232Z,101161.75
2023-04-18T05:32:51.260Z,101172.66
2023-04-18T05:35:18.361Z,101164.81
2023-04-18T05:37:45.371Z,101165.88
2023-04-18T05:40:13.542Z,101166.09
2023-04-18T05:42:41.010Z,101168.78
2023-04-18T05:45:08.786Z,101162.06
2023-04-18T05:47:36.030Z,101163.91
2023-04-18T05:50:03.171Z,101156.28
2023-04-18T05:52:30.271Z,101155.50
2023-04-18T05:54:57.280Z,101162.28
2023-04-18T05:57:24.301Z,101170.00
2023-04-18T05:59:51.305Z,101164.13
2023-04-18T06:02:18.432Z,101162.16
2023-04-18T06:04:46.273Z,101165.59
2023-04-18T06:07:13.424Z,101159.75
2023-04-18T06:09:40.462Z,101162.63
2023-04-18T06:12:07.485Z,101163.03
2023-04-18T06:14:34.488Z,101169.16
2023-04-18T06:17:01.514Z,101175.34
2023-04-18T06:19:28.534Z,101172.47
2023-04-18T06:21:55.576Z,101180.72
2023-04-18T06:24:23.135Z,101169.94
2023-04-18T06:26:50.204Z,101165.25
2023-04-18T06:29:18.258Z,101180.91
2023-04-18T06:31:46.771Z,101174.41
2023-04-18T06:34:14.206Z,101180.44
2023-04-18T06:36:41.382Z,101169.00
2023-04-18T06:39:08.767Z,101172.25
2023-04-18T06:41:35.790Z,101170.88
2023-04-18T06:44:04.479Z,101171.75
2023-04-18T06:46:33.055Z,101180.25
2023-04-18T06:49:00.511Z,101186.00
2023-04-18T06:51:27.678Z,101186.16
2023-04-18T06:53:54.711Z,101182.94
2023-04-18T06:56:22.852Z,101188.47
2023-04-18T06:58:50.230Z,101187.59
2023-04-18T07:01:17.308Z,101186.22
2023-04-18T07:03:44.541Z,101190.53
2023-04-18T07:06:11.692Z,101188.53
2023-04-18T07:08:38.820Z,101190.81
2023-04-18T07:11:06.761Z,101184.56
2023-04-18T07:13:33.821Z,101187.41
2023-04-18T07:16:01.644Z,101193.66
2023-04-18T07:18:37.574Z,101187.06
2023-04-18T07:21:08.872Z,101187.75
2023-04-18T07:23:36.606Z,101194.16
2023-04-18T07:26:05.782Z,101191.22
2023-04-18T07:28:33.462Z,101192.38
2023-04-18T07:31:01.315Z,101191.34
2023-04-18T07:33:31.761Z,101191.13
2023-04-18T07:35:59.028Z,101207.59
2023-04-18T07:38:26.965Z,101194.38
2023-04-18T07:41:02.344Z,101186.22
2023-04-18T07:43:29.338Z,101190.28
2023-04-18T07:45:56.541Z,101198.91
2023-04-18T07:48:25.169Z,101195.09
2023-04-18T07:50:52.453Z,101202.63
2023-04-18T07:53:19.846Z,101196.81
2023-04-18T07:55:46.942Z,101195.88
2023-04-18T07:58:14.200Z,101194.78
2023-04-18T08:00:42.754Z,101198.56
2023-04-18T08:03:11.132Z,101186.31
2023-04-18T08:05:42.909Z,101175.59
2023-04-18T08:08:12.011Z,101181.09
2023-04-18T08:10:39.271Z,101182.63
2023-04-18T08:13:07.031Z,101187.88
2023-04-18T08:15:34.143Z,101180.53
2023-04-18T08:18:01.983Z,101180.31
2023-04-18T08:20:29.494Z,101161.84
2023-04-18T08:23:06.793Z,101173.66
2023-04-18T08:25:36.559Z,101173.72
2023-04-18T08:28:04.081Z,101180.88
2023-04-18T08:30:31.670Z,101178.38
2023-04-18T08:33:00.587Z,101173.84
2023-04-18T08:35:27.678Z,101172.09
2023-04-18T08:37:55.861Z,101176.63
2023-04-18T08:40:23.048Z,101177.47
2023-04-18T08:42:52.950Z,101168.47
2023-04-18T08:45:20.937Z,101171.22
2023-04-18T08:47:48.098Z,101168.56
2023-04-18T08:50:15.194Z,101175.25
2023-04-18T08:52:48.809Z,101163.59
2023-04-18T08:55:16.521Z,101163.69
2023-04-18T08:57:44.664Z,101161.81
2023-04-18T09:00:12.553Z,101155.88
2023-04-18T09:02:45.050Z,101155.88
2023-04-18T09:05:15.085Z,101158.56
2023-04-18T09:07:42.762Z,101158.31
2023-04-18T09:10:10.524Z,101149.81
2023-04-18T09:12:52.401Z,101141.53
2023-04-18T09:15:24.224Z,101162.19
2023-04-18T09:17:54.063Z,101153.66
2023-04-18T09:20:43.755Z,101149.44
2023-04-18T09:23:16.270Z,101145.25
2023-04-18T09:25:48.162Z,101151.19
2023-04-18T09:28:33.282Z,101145.75
2023-04-18T09:31:12.963Z,101149.75
2023-04-18T09:33:44.754Z,101147.75
2023-04-18T09:36:27.371Z,101141.75
2023-04-18T09:38:57.084Z,101149.38
2023-04-18T09:41:24.624Z,101141.13
2023-04-18T09:44:15.010Z,101147.84
2023-04-18T09:46:45.230Z,101148.59
2023-04-18T09:49:14.074Z,101149.09
2023-04-18T09:51:43.222Z,101155.31
2023-04-18T09:54:15.134Z,101148.13
2023-04-18T09:56:45.599Z,101146.03
2023-04-18T09:59:17.749Z,101141.41
2023-04-18T10:01:48.632Z,101132.81
2023-04-18T10:04:17.764Z,101148.19
2023-04-18T10:06:46.856Z,101142.69
2023-04-18T10:09:16.398Z,101133.72
2023-04-18T10:11:44.492Z,101140.72
2023-04-18T10:14:15.538Z,101129.06
2023-04-18T10:16:45.577Z,101135.84
2023-04-18T10:19:28.456Z,101106.00
2023-04-18T10:22:00.389Z,101126.41
2023-04-18T10:24:45.904Z,101132.84
2023-04-18T10:27:13.067Z,101128.22
2023-04-18T10:29:53.452Z,101119.72
2023-04-18T10:32:23.581Z,101126.97
2023-04-18T10:34:53.513Z,101122.81
2023-04-18T10:37:20.692Z,101119.59
2023-04-18T10:39:56.263Z,101116.53
2023-04-18T10:42:48.096Z,101111.41
2023-04-18T10:45:18.819Z,101118.53
2023-04-18T10:47:46.085Z,101113.41
2023-04-18T10:50:13.696Z,101113.84
2023-04-18T10:52:41.757Z,101092.78
2023-04-18T10:55:16.735Z,101090.16
2023-04-18T10:57:49.270Z,101106.81
2023-04-18T11:00:21.784Z,101101.72
2023-04-18T11:02:56.549Z,101100.53
2023-04-18T11:05:27.753Z,101099.50
2023-04-18T11:07:55.504Z,101103.00
2023-04-18T11:10:25.686Z,101114.84
2023-04-18T11:12:56.232Z,101100.06
2023-04-18T11:15:25.448Z,101109.53
2023-04-18T11:17:58.812Z,101102.06
2023-04-18T11:20:26.659Z,101103.97
2023-04-18T11:22:59.906Z,101090.38
2023-04-18T11:25:34.492Z,101090.25
2023-04-18T11:28:04.641Z,101101.56
2023-04-18T11:30:42.299Z,101096.78
2023-04-18T11:33:11.781Z,101099.25
2023-04-18T11:35:43.424Z,101091.19
2023-04-18T11:38:16.033Z,101092.34
2023-04-18T11:40:50.441Z,101093.06
2023-04-18T11:43:25.642Z,101087.66
2023-04-18T11:46:02.143Z,101084.19
2023-04-18T11:48:45.453Z,101073.28
2023-04-18T11:51:34.314Z,101076.78
2023-04-18T11:54:01.555Z,101090.44
2023-04-18T11:56:28.558Z,101079.25
2023-04-18T11:58:56.400Z,101075.56
2023-04-18T12:01:25.694Z,101070.81
2023-04-18T12:04:02.859Z,101070.06
2023-04-18T12:06:49.989Z,101062.22
2023-04-18T12:09:18.267Z,101069.34
2023-04-18T12:12:01.111Z,101066.25
2023-04-18T12:14:28.726Z,101067.69
2023-04-18T12:16:56.293Z,101051.59
2023-04-18T12:19:28.301Z,101060.63
2023-04-18T12:22:05.325Z,101055.03
2023-04-18T12:24:32.998Z,101048.91
2023-04-18T12:27:00.161Z,101053.78
2023-04-18T12:29:29.225Z,101055.13
2023-04-18T12:31:56.709Z,101049.06
2023-04-18T12:34:23.974Z,101040.69
2023-04-18T12:36:51.114Z,101048.09
2023-04-18T12:39:18.056Z,101048.13
2023-04-18T12:41:45.346Z,101039.75
2023-04-18T12:44:13.321Z,101030.31
2023-04-18T12:46:40.602Z,101038.81
2023-04-18T12:49:08.290Z,101032.28
2023-04-18T12:51:35.277Z,101030.72
2023-04-18T12:54:02.390Z,101027.03
2023-04-18T12:56:29.439Z,101028.75
2023-04-18T12:58:56.487Z,101023.84
2023-04-18T13:01:23.496Z,101026.13
2023-04-18T13:03:59.855Z,101032.41
2023-04-18T13:06:31.595Z,101020.72
2023-04-18T13:08:59.050Z,101017.84
2023-04-18T13:11:28.646Z,101030.81
2023-04-18T13:13:55.864Z,101027.56
2023-04-18T13:16:22.949Z,101020.34
2023-04-18T13:18:49.986Z,101023.06
2023-04-18T13:21:17.178Z,101013.50
2023-04-18T13:23:44.281Z,101020.53
2023-04-18T13:26:11.262Z,100989.78
2023-04-18T13:28:38.358Z,101007.44
2023-04-18T13:31:06.072Z,100999.59
2023-04-18T13:33:33.056Z,100990.50
2023-04-18T13:36:00.055Z,100999.53
2023-04-18T13:38:28.056Z,100993.47
2023-04-18T13:41:08.555Z,100984.72
2023-04-18T13:43:38.219Z,100999.66
2023-04-18T13:46:05.452Z,100985.16
2023-04-18T13:48:32.494Z,100986.16
2023-04-18T13:50:59.469Z,100985.81
2023-04-18T13:53:27.212Z,100989.72
2023-04-18T13:55:54.960Z,100989.09
2023-04-18T13:58:21.994Z,100998.44
2023-04-18T14:00:48.998Z,100974.44
2023-04-18T14:03:16.313Z,100992.28
2023-04-18T14:05:43.407Z,100978.97
2023-04-18T14:08:10.485Z,100981.56
2023-04-18T14:10:37.615Z,100975.09
2023-04-18T14:13:04.589Z,100974.28
2023-04-18T14:15:33.292Z,100976.84
2023-04-18T14:18:01.177Z,100967.44
2023-04-18T14:20:34.328Z,100973.72
2023-04-18T14:23:02.091Z,100974.06
2023-04-18T14:25:30.272Z,100967.19
2023-04-18T14:28:11.018Z,100966.03
2023-04-18T14:30:39.549Z,100968.44
2023-04-18T14:33:08.734Z,100960.09
2023-04-18T14:35:36.085Z,100960.22
2023-04-18T14:38:03.291Z,100961.06
2023-04-18T14:40:32.558Z,100958.69
2023-04-18T14:43:00.034Z,100961.41
2023-04-18T14:45:27.083Z,100959.63
2023-04-18T14:47:55.815Z,100956.88
2023-04-18T14:50:22.999Z,100953.41
2023-04-18T14:52:51.490Z,100960.50
2023-04-18T14:55:21.820Z,100958.06
2023-04-18T14:57:48.862Z,100960.69
2023-04-18T15:00:16.322Z,100964.34
2023-04-18T15:02:43.644Z,100964.16
2023-04-18T15:05:12.442Z,100963.50
2023-04-18T15:07:40.819Z,100957.31
2023-04-18T15:10:08.745Z,100944.00
2023-04-18T15:12:36.038Z,100963.78
2023-04-18T15:15:03.072Z,100947.59
2023-04-18T15:17:30.153Z,100960.97
2023-04-18T15:19:59.110Z,100951.84
2023-04-18T15:22:26.084Z,100953.34
2023-04-18T15:24:53.077Z,100947.34
2023-04-18T15:27:20.066Z,100947.19
2023-04-18T15:29:47.087Z,100941.16
2023-04-18T15:32:14.439Z,100945.56
2023-04-18T15:34:41.608Z,100949.16
2023-04-18T15:37:09.382Z,100933.88
2023-04-18T15:39:36.856Z,100945.69
2023-04-18T15:42:03.940Z,100938.13
2023-04-18T15:44:31.116Z,100949.50
2023-04-18T15:47:00.520Z,100945.84
2023-04-18T15:49:27.867Z,100941.56
2023-04-18T15:51:56.647Z,100937.97
2023-04-18T15:54:23.709Z,100934.63
2023-04-18T15:56:51.127Z,100929.03
2023-04-18T15:59:18.124Z,100923.66
2023-04-18T16:01:46.182Z,100929.09
2023-04-18T16:04:13.624Z,100922.59
2023-04-18T16:06:40.968Z,100928.09
2023-04-18T16:09:08.175Z,100932.59
2023-04-18T16:11:35.248Z,100932.66
2023-04-18T16:14:02.233Z,100933.16
2023-04-18T16:16:29.520Z,100928.56
2023-04-18T16:18:56.632Z,100925.25
2023-04-18T16:21:23.683Z,100917.25
2023-04-18T16:23:50.746Z,100922.59
2023-04-18T16:26:17.849Z,100920.84
2023-04-18T16:28:44.853Z,100918.81
2023-04-18T16:31:13.991Z,100921.16
2023-04-18T16:33:41.210Z,100915.84
2023-04-18T16:36:09.236Z,100917.66
2023-04-18T16:38:36.317Z,100914.00
2023-04-18T16:41:03.760Z,100916.66
2023-04-18T16:43:31.165Z,100901.50
2023-04-18T16:46:00.313Z,100907.78
2023-04-18T16:48:28.999Z,100908.53
2023-04-18T16:50:56.667Z,100909.28
2023-04-18T16:53:24.811Z,100908.41
2023-04-18T16:55:53.109Z,100907.41
2023-04-18T16:58:21.642Z,100909.22
2023-04-18T17:00:48.661Z,100904.53
2023-04-18T17:03:15.930Z,100906.38
2023-04-18T17:05:43.011Z,100905.25
2023-04-18T17:08:10.049Z,100906.16
2023-04-18T17:10:37.036Z,100898.22
2023-04-18T17:13:04.306Z,100895.44
2023-04-18T17:15:31.378Z,100908.59
2023-04-18T17:18:00.392Z,100906.91
2023-04-18T17:20:28.374Z,100906.94
2023-04-18T17:22:55.693Z,100905.06
2023-04-18T17:25:22.693Z,100904.88
2023-04-18T17:27:49.684Z,100912.03
2023-04-18T17:30:16.838Z,100905.00
2023-04-18T17:32:46.108Z,100909.25
2023-04-18T17:35:14.741Z,100907.66
2023-04-18T17:37:45.348Z,100897.06
2023-04-18T17:40:13.154Z,100913.66
2023-04-18T17:42:40.514Z,100902.97
2023-04-18T17:45:09.561Z,100904.75
2023-04-18T17:47:36.958Z,100908.19
2023-04-18T17:50:05.194Z,100904.00
2023-04-18T17:52:32.614Z,100911.06
2023-04-18T17:55:01.648Z,100910.81
2023-04-18T17:57:30.522Z,100904.91
2023-04-18T17:59:57.604Z,100913.53
2023-04-18T18:02:24.877Z,100914.38
2023-04-18T18:04:51.994Z,100910.78
2023-04-18T18:07:18.951Z,100911.94
2023-04-18T18:09:46.068Z,100905.97
2023-04-18T18:12:13.605Z,100905.00
2023-04-18T18:14:40.597Z,100911.84
2023-04-18T18:17:07.766Z,100904.84
2023-04-18T18:19:38.918Z,100902.41
2023-04-18T18:22:06.299Z,100901.22
2023-04-18T18:24:33.324Z,100897.47
2023-04-18T18:27:00.508Z,100898.66
2023-04-18T18:29:27.581Z,100892.25
2023-04-18T18:31:54.840Z,100898.97
2023-04-18T18:34:22.075Z,100887.97
2023-04-18T18:36:49.272Z,100892.56
2023-04-18T18:39:16.683Z,100888.13
2023-04-18T18:41:43.916Z,100895.91
2023-04-18T18:44:11.851Z,100889.47
2023-04-18T18:46:38.952Z,100888.56
2023-04-18T18:49:05.968Z,100892.88
2023-04-18T18:51:33.086Z,100886.28
2023-04-18T18:54:00.151Z,100884.81
2023-04-18T18:56:27.250Z,100885.78
2023-04-18T18:58:57.428Z,100882.13
2023-04-18T19:01:24.641Z,100877.34
2023-04-18T19:03:51.819Z,100883.81
2023-04-18T19:06:18.843Z,100879.25
2023-04-18T19:08:45.891Z,100873.66
2023-04-18T19:11:12.920Z,100881.16
2023-04-18T19:13:40.021Z,100870.06
2023-04-18T19:16:07.361Z,100863.81
2023-04-18T19:18:34.455Z,100864.88
2023-04-18T19:21:02.541Z,100872.97
2023-04-18T19:23:30.964Z,100858.34
2023-04-18T19:25:58.234Z,100866.22
2023-04-18T19:28:25.874Z,100861.81
2023-04-18T19:30:53.191Z,100866.19
2023-04-18T19:33:21.252Z,100865.19
2023-04-18T19:35:48.279Z,100870.00
2023-04-18T19:38:15.412Z,100850.16
2023-04-18T19:40:42.674Z,100859.22
2023-04-18T19:43:09.745Z,100859.41
2023-04-18T19:45:36.821Z,100854.78
2023-04-18T19:48:04.147Z,100852.78
2023-04-18T19:50:31.196Z,100859.97
2023-04-18T19:52:58.204Z,100858.78
2023-04-18T19:55:25.361Z,100859.09
2023-04-18T19:57:56.796Z,100853.88
2023-04-18T20:00:23.945Z,100850.38
2023-04-18T20:02:51.194Z,100853.44
2023-04-18T20:05:18.673Z,100846.63
2023-04-18T20:07:45.903Z,100849.25
2023-04-18T20:10:12.961Z,100848.59
2023-04-18T20:12:40.280Z,100853.09
2023-04-18T20:15:08.349Z,100845.31
2023-04-18T20:17:35.464Z,100852.44
2023-04-18T20:20:02.868Z,100848.56
2023-04-18T20:22:29.923Z,100843.09
2023-04-18T20:24:57.372Z,100840.41
2023-04-18T20:27:24.425Z,100841.06
2023-04-18T20:29:51.600Z,100842.81
2023-04-18T20:32:18.587Z,100827.44
2023-04-18T20:34:46.709Z,100840.63
2023-04-18T20:37:15.988Z,100825.53
2023-04-18T20:39:43.019Z,100835.44
2023-04-18T20:42:14.172Z,100827.63
2023-04-18T20:44:47.023Z,100824.91
2023-04-18T20:47:15.823Z,100821.72
2023-04-18T20:49:43.134Z,100821.16
2023-04-18T20:52:10.361Z,100817.59
2023-04-18T20:54:37.374Z,100810.72
2023-04-18T20:57:04.527Z,100820.88
2023-04-18T20:59:31.574Z,100813.66
2023-04-18T21:01:58.665Z,100816.78
2023-04-18T21:04:26.629Z,100810.41
2023-04-18T21:06:53.879Z,100805.63
2023-04-18T21:09:20.875Z,100808.97
2023-04-18T21:11:47.988Z,100802.63
2023-04-18T21:14:17.125Z,100794.53
2023-04-18T21:16:44.373Z,100794.88
2023-04-18T21:19:11.805Z,100800.13
2023-04-18T21:21:38.815Z,100788.31
2023-04-18T21:24:06.149Z,100786.06
2023-04-18T21:26:33.276Z,100788.75
2023-04-18T21:29:02.593Z,100786.19
2023-04-18T21:31:31.764Z,100792.03
2023-04-18T21:34:01.568Z,100783.41
2023-04-18T21:36:30.994Z,100778.81
2023-04-18T21:39:01.040Z,100777.81
2023-04-18T21:41:28.520Z,100768.09
2023-04-18T21:43:55.721Z,100781.34
2023-04-18T21:46:22.860Z,100778.25
2023-04-18T21:48:49.974Z,100777.84
2023-04-18T21:51:17.499Z,100778.19
2023-04-18T21:53:44.771Z,100771.50
2023-04-18T21:56:11.971Z,100773.22
2023-04-18T21:58:39.047Z,100776.59
2023-04-18T22:01:06.311Z,100775.66
2023-04-18T22:03:34.357Z,100766.34
2023-04-18T22:06:02.016Z,100759.47
2023-04-18T22:08:29.556Z,100768.53
2023-04-18T22:10:59.004Z,100765.38
2023-04-18T22:13:33.137Z,100758.41
2023-04-18T22:16:04.843Z,100751.41
2023-04-18T22:18:34.062Z,100759.94
2023-04-18T22:21:03.373Z,100745.66
2023-04-18T22:23:31.133Z,100753.09
2023-04-18T22:25:58.336Z,100752.78
2023-04-18T22:28:27.820Z,100748.44
2023-04-18T22:30:54.971Z,100738.69
2023-04-18T22:33:22.069Z,100738.50
2023-04-18T22:35:49.194Z,100743.72
2023-04-18T22:38:16.398Z,100732.53
2023-04-18T22:40:43.442Z,100730.56
2023-04-18T22:43:10.414Z,100735.47
2023-04-18T22:45:37.403Z,100728.13
2023-04-18T22:48:04.938Z,100726.75
2023-04-18T22:50:32.003Z,100724.28
2023-04-18T22:52:58.981Z,100719.22
2023-04-18T22:55:25.952Z,100716.00
2023-04-18T22:57:52.968Z,100716.69
2023-04-18T23:00:20.118Z,100718.50
2023-04-18T23:02:47.199Z,100715.91
2023-04-18T23:05:16.115Z,100712.97
2023-04-18T23:07:43.129Z,100707.75
2023-04-18T23:10:10.926Z,100703.16
2023-04-18T23:12:37.909Z,100706.59
2023-04-18T23:15:05.531Z,100700.50
2023-04-18T23:17:34.920Z,100700.19
2023-04-18T23:20:02.034Z,100689.06
2023-04-18T23:22:29.571Z,100685.97
2023-04-18T23:24:56.558Z,100688.31
2023-04-18T23:27:23.589Z,100684.78
2023-04-18T23:29:50.763Z,100681.19
2023-04-18T23:32:17.808Z,100669.38
2023-04-18T23:34:46.043Z,100680.16
2023-04-18T23:37:12.998Z,100677.13
2023-04-18T23:39:40.040Z,100674.16
2023-04-18T23:42:07.145Z,100658.91
2023-04-18T23:44:34.266Z,100668.69
2023-04-18T23:47:01.320Z,100661.72
2023-04-18T23:49:28.523Z,100653.47
2023-04-18T23:51:55.516Z,100657.81
2023-04-18T23:54:22.563Z,100656.84
2023-04-18T23:56:49.764Z,100651.06
2023-04-18T23:59:16.754Z,100650.88
